createdAt,value
2023-01-26T00:00:10.726Z,17.20
2023-01-26T00:02:16.918Z,16.15
2023-01-26T00:04:19.804Z,16.92
2023-01-26T00:06:23.153Z,15.35
2023-01-26T00:08:26.190Z,15.55
2023-01-26T00:10:29.165Z,16.48
2023-01-26T00:12:32.068Z,14.60
2023-01-26T00:14:49.904Z,14.85
2023-01-26T00:16:54.413Z,15.23
2023-01-26T00:18:59.886Z,17.55
2023-01-26T00:21:04.009Z,15.73
2023-01-26T00:23:07.178Z,15.63
2023-01-26T00:25:10.715Z,16.90
2023-01-26T00:27:13.655Z,17.77
2023-01-26T00:29:16.610Z,15.80
2023-01-26T00:31:21.228Z,17.33
2023-01-26T00:33:24.188Z,17.02
2023-01-26T00:35:28.456Z,18.13
2023-01-26T00:37:31.787Z,18.00
2023-01-26T00:39:34.767Z,18.48
2023-01-26T00:42:00.450Z,18.10
2023-01-26T00:44:03.503Z,17.30
2023-01-26T00:46:06.435Z,19.13
2023-01-26T00:48:11.646Z,18.85
2023-01-26T00:50:14.871Z,18.95
2023-01-26T00:52:19.107Z,19.27
2023-01-26T00:54:22.035Z,19.08
2023-01-26T00:56:27.883Z,18.52
2023-01-26T00:58:30.846Z,17.58
2023-01-26T01:00:35.253Z,19.58
2023-01-26T01:02:38.244Z,17.92
2023-01-26T01:04:41.215Z,17.55
2023-01-26T01:06:44.447Z,20.08
2023-01-26T01:08:48.949Z,18.10
2023-01-26T01:10:51.868Z,17.80
2023-01-26T01:12:54.813Z,20.17
2023-01-26T01:14:59.556Z,21.50
2023-01-26T01:17:02.527Z,22.33
2023-01-26T01:19:05.585Z,22.92
2023-01-26T01:21:08.979Z,19.83
2023-01-26T01:23:11.879Z,20.38
2023-01-26T01:25:16.254Z,18.58
2023-01-26T01:27:19.254Z,20.35
2023-01-26T01:29:22.194Z,19.55
2023-01-26T01:31:26.209Z,18.48
2023-01-26T01:33:29.232Z,19.23
2023-01-26T01:35:35.735Z,19.35
2023-01-26T01:37:38.669Z,18.90
2023-01-26T01:39:41.607Z,18.48
2023-01-26T01:41:46.025Z,17.48
2023-01-26T01:43:48.978Z,17.75
2023-01-26T01:45:52.487Z,17.83
2023-01-26T01:47:57.399Z,17.48
2023-01-26T01:50:04.211Z,18.02
2023-01-26T01:52:10.208Z,19.48
2023-01-26T01:54:16.748Z,18.85
2023-01-26T01:56:22.037Z,18.50
2023-01-26T01:58:26.676Z,17.85
2023-01-26T02:00:32.831Z,18.08
2023-01-26T02:02:36.251Z,18.60
2023-01-26T02:04:39.537Z,18.17
2023-01-26T02:06:50.651Z,18.73
2023-01-26T02:08:55.738Z,17.77
2023-01-26T02:11:01.467Z,17.50
2023-01-26T02:13:06.392Z,17.67
2023-01-26T02:15:12.064Z,17.20
2023-01-26T02:17:14.969Z,17.13
2023-01-26T02:19:23.512Z,16.90
2023-01-26T02:21:26.633Z,17.10
2023-01-26T02:23:41.083Z,16.17
2023-01-26T02:25:49.110Z,16.80
2023-01-26T02:27:53.749Z,17.10
2023-01-26T02:29:57.481Z,15.55
2023-01-26T02:32:00.476Z,16.15
2023-01-26T02:34:03.614Z,16.30
2023-01-26T02:36:07.805Z,15.25
2023-01-26T02:38:10.874Z,14.75
2023-01-26T02:40:20.035Z,15.05
2023-01-26T02:42:44.408Z,13.77
2023-01-26T02:44:47.924Z,13.95
2023-01-26T02:46:50.936Z,15.48
2023-01-26T02:49:11.920Z,14.75
2023-01-26T02:51:15.028Z,13.85
2023-01-26T02:53:18.916Z,13.85
2023-01-26T02:55:25.183Z,14.27
2023-01-26T02:57:28.640Z,14.20
2023-01-26T02:59:32.233Z,13.95
2023-01-26T03:01:36.499Z,13.63
2023-01-26T03:03:45.182Z,13.63
2023-01-26T03:05:50.296Z,16.38
2023-01-26T03:07:53.904Z,15.15
2023-01-26T03:09:59.832Z,15.15
2023-01-26T03:12:02.792Z,14.02
2023-01-26T03:14:05.794Z,15.00
2023-01-26T03:16:10.353Z,13.75
2023-01-26T03:18:34.213Z,12.85
2023-01-26T03:20:53.318Z,13.30
2023-01-26T03:23:14.133Z,13.32
2023-01-26T03:25:35.401Z,13.70
2023-01-26T03:27:41.704Z,13.13
2023-01-26T03:29:44.997Z,12.70
2023-01-26T03:31:48.201Z,13.23
2023-01-26T03:33:52.591Z,12.63
2023-01-26T03:35:55.876Z,12.95
2023-01-26T03:38:00.104Z,12.93
2023-01-26T03:40:34.258Z,11.25
2023-01-26T03:42:55.569Z,12.73
2023-01-26T03:45:15.962Z,11.75
2023-01-26T03:47:37.255Z,11.80
2023-01-26T03:49:59.189Z,12.00
2023-01-26T03:52:20.060Z,12.48
2023-01-26T03:54:41.685Z,12.35
2023-01-26T03:56:45.243Z,11.20
2023-01-26T03:58:53.460Z,12.35
2023-01-26T04:00:58.737Z,12.32
2023-01-26T04:03:19.074Z,11.98
2023-01-26T04:05:41.273Z,11.32
2023-01-26T04:08:01.633Z,11.65
2023-01-26T04:10:05.023Z,12.95
2023-01-26T04:12:10.213Z,12.40
2023-01-26T04:14:49.307Z,12.57
2023-01-26T04:17:13.307Z,11.77
2023-01-26T04:19:33.868Z,12.15
2023-01-26T04:21:39.111Z,13.55
2023-01-26T04:23:56.398Z,14.35
2023-01-26T04:26:00.041Z,14.45
2023-01-26T04:28:03.322Z,16.27
2023-01-26T04:30:07.975Z,16.52
2023-01-26T04:32:11.921Z,15.48
2023-01-26T04:34:16.502Z,15.70
2023-01-26T04:36:19.766Z,14.90
2023-01-26T04:38:26.785Z,14.45
2023-01-26T04:40:30.533Z,15.15
2023-01-26T04:42:33.955Z,15.90
2023-01-26T04:44:38.234Z,14.82
2023-01-26T04:46:41.603Z,13.90
2023-01-26T04:48:46.785Z,15.05
2023-01-26T04:50:54.847Z,14.98
2023-01-26T04:52:59.038Z,14.88
2023-01-26T04:55:03.437Z,15.27
2023-01-26T04:57:09.009Z,14.52
2023-01-26T04:59:12.997Z,15.95
2023-01-26T05:01:17.565Z,13.90
2023-01-26T05:03:20.718Z,12.88
2023-01-26T05:05:23.870Z,14.77
2023-01-26T05:07:27.028Z,13.73
2023-01-26T05:09:30.121Z,14.85
2023-01-26T05:11:49.682Z,14.07
2023-01-26T05:14:12.944Z,13.18
2023-01-26T05:16:31.766Z,14.70
2023-01-26T05:18:35.051Z,13.60
2023-01-26T05:20:52.806Z,14.27
2023-01-26T05:23:01.582Z,12.40
2023-01-26T05:25:36.656Z,11.73
2023-01-26T05:27:45.393Z,13.30
2023-01-26T05:29:51.011Z,12.90
2023-01-26T05:31:54.681Z,12.73
2023-01-26T05:33:57.900Z,12.80
2023-01-26T05:36:05.045Z,13.02
2023-01-26T05:38:08.519Z,11.30
2023-01-26T05:40:13.995Z,12.00
2023-01-26T05:42:17.391Z,11.23
2023-01-26T05:44:38.350Z,12.50
2023-01-26T05:46:49.959Z,12.80
2023-01-26T05:48:52.908Z,10.80
2023-01-26T05:50:57.437Z,11.40
2023-01-26T05:53:02.967Z,11.88
2023-01-26T05:55:08.515Z,11.98
2023-01-26T05:57:11.903Z,10.77
2023-01-26T05:59:20.055Z,10.88
2023-01-26T06:01:24.567Z,10.65
2023-01-26T06:03:33.596Z,11.23
2023-01-26T06:05:38.825Z,10.82
2023-01-26T06:07:49.815Z,11.23
2023-01-26T06:10:01.408Z,10.43
2023-01-26T06:12:43.114Z,10.60
2023-01-26T06:15:13.377Z,9.95
2023-01-26T06:17:22.334Z,9.15
2023-01-26T06:19:31.529Z,9.35
2023-01-26T06:21:36.325Z,10.15
2023-01-26T06:23:39.463Z,9.20
2023-01-26T06:25:42.620Z,9.82
2023-01-26T06:27:45.554Z,10.20
2023-01-26T06:30:00.040Z,9.52
2023-01-26T06:32:03.547Z,9.60
2023-01-26T06:34:08.853Z,9.82
2023-01-26T06:36:16.116Z,9.55
2023-01-26T06:38:23.235Z,9.82
2023-01-26T06:40:26.952Z,8.82
2023-01-26T06:42:30.275Z,10.15
2023-01-26T06:44:33.298Z,8.98
2023-01-26T06:46:36.390Z,9.68
2023-01-26T06:48:39.899Z,9.30
2023-01-26T06:50:45.777Z,10.80
2023-01-26T06:52:49.508Z,9.02
2023-01-26T06:55:18.579Z,9.80
2023-01-26T06:57:29.935Z,10.02
2023-01-26T06:59:46.394Z,9.68
2023-01-26T07:02:15.483Z,9.05
2023-01-26T07:04:18.620Z,9.90
2023-01-26T07:06:23.164Z,9.85
2023-01-26T07:08:26.357Z,8.38
2023-01-26T07:10:31.533Z,9.48
2023-01-26T07:12:41.853Z,8.80
2023-01-26T07:14:45.111Z,9.35
2023-01-26T07:16:48.186Z,9.60
2023-01-26T07:18:51.216Z,9.80
2023-01-26T07:20:54.120Z,9.52
2023-01-26T07:23:00.532Z,9.43
2023-01-26T07:25:03.690Z,9.30
2023-01-26T07:27:07.443Z,8.43
2023-01-26T07:29:10.634Z,9.05
2023-01-26T07:31:13.993Z,9.20
2023-01-26T07:33:17.069Z,8.85
2023-01-26T07:35:20.059Z,8.80
2023-01-26T07:37:22.997Z,9.40
2023-01-26T07:39:27.849Z,9.63
2023-01-26T07:41:30.985Z,10.40
2023-01-26T07:43:35.167Z,9.73
2023-01-26T07:45:38.125Z,9.40
2023-01-26T07:47:41.080Z,8.88
2023-01-26T07:49:44.016Z,8.88
2023-01-26T07:51:47.004Z,9.57
2023-01-26T07:53:50.082Z,9.30
2023-01-26T07:55:54.456Z,9.85
2023-01-26T07:57:57.780Z,10.15
2023-01-26T08:00:01.037Z,9.43
2023-01-26T08:02:04.083Z,9.18
2023-01-26T08:04:07.425Z,9.05
2023-01-26T08:06:14.101Z,8.63
2023-01-26T08:08:19.395Z,7.53
2023-01-26T08:10:22.426Z,8.38
2023-01-26T08:12:26.767Z,7.03
2023-01-26T08:14:45.071Z,8.27
2023-01-26T08:16:49.158Z,7.72
2023-01-26T08:18:52.360Z,8.75
2023-01-26T08:20:55.853Z,7.05
2023-01-26T08:23:00.477Z,7.95
2023-01-26T08:25:03.680Z,8.15
2023-01-26T08:27:06.695Z,6.90
2023-01-26T08:29:11.097Z,7.13
2023-01-26T08:31:18.611Z,7.28
2023-01-26T08:33:21.675Z,6.78
2023-01-26T08:35:24.664Z,6.72
2023-01-26T08:37:27.667Z,7.18
2023-01-26T08:39:30.607Z,8.00
2023-01-26T08:41:33.984Z,7.90
2023-01-26T08:43:37.209Z,7.25
2023-01-26T08:45:41.693Z,8.30
2023-01-26T08:47:45.403Z,7.22
2023-01-26T08:49:48.440Z,8.15
2023-01-26T08:51:51.454Z,8.52
2023-01-26T08:53:54.796Z,8.30
2023-01-26T08:55:57.745Z,8.48
2023-01-26T08:58:00.880Z,8.15
2023-01-26T09:00:04.993Z,8.20
2023-01-26T09:02:10.164Z,8.70
2023-01-26T09:04:13.256Z,8.13
2023-01-26T09:06:16.371Z,8.68
2023-01-26T09:08:19.302Z,8.65
2023-01-26T09:10:22.285Z,8.57
2023-01-26T09:12:25.303Z,8.85
2023-01-26T09:14:28.707Z,10.15
2023-01-26T09:16:31.889Z,9.35
2023-01-26T09:18:36.551Z,9.75
2023-01-26T09:20:40.139Z,8.95
2023-01-26T09:22:43.602Z,9.95
2023-01-26T09:24:46.591Z,9.20
2023-01-26T09:26:49.615Z,8.80
2023-01-26T09:28:53.130Z,8.40
2023-01-26T09:30:56.495Z,8.80
2023-01-26T09:33:00.278Z,8.65
2023-01-26T09:35:04.985Z,9.43
2023-01-26T09:37:08.407Z,9.35
2023-01-26T09:39:11.470Z,9.05
2023-01-26T09:41:33.550Z,10.15
2023-01-26T09:43:41.535Z,8.73
2023-01-26T09:45:48.188Z,7.63
2023-01-26T09:47:59.857Z,7.95
2023-01-26T09:50:09.559Z,8.27
2023-01-26T09:52:19.552Z,7.90
2023-01-26T09:54:27.813Z,8.48
2023-01-26T09:56:32.632Z,8.88
2023-01-26T09:58:39.315Z,9.15
2023-01-26T10:00:47.436Z,7.22
2023-01-26T10:03:02.184Z,8.85
2023-01-26T10:05:15.852Z,8.15
2023-01-26T10:07:18.939Z,8.35
2023-01-26T10:09:24.292Z,10.90
2023-01-26T10:11:32.041Z,10.10
2023-01-26T10:13:35.635Z,9.35
2023-01-26T10:15:40.621Z,9.93
2023-01-26T10:17:45.041Z,8.25
2023-01-26T10:19:51.720Z,9.80
2023-01-26T10:21:56.766Z,10.00
2023-01-26T10:24:02.903Z,9.80
2023-01-26T10:26:13.479Z,8.80
2023-01-26T10:28:17.619Z,10.07
2023-01-26T10:30:22.283Z,7.70
2023-01-26T10:32:25.499Z,8.38
2023-01-26T10:34:29.030Z,9.65
2023-01-26T10:36:33.227Z,9.15
2023-01-26T10:38:45.051Z,9.13
2023-01-26T10:40:48.061Z,8.63
2023-01-26T10:42:58.925Z,9.40
2023-01-26T10:45:03.582Z,9.27
2023-01-26T10:47:17.921Z,9.57
2023-01-26T10:49:22.052Z,9.88
2023-01-26T10:51:28.033Z,10.13
2023-01-26T10:53:31.584Z,9.82
2023-01-26T10:55:37.307Z,10.50
2023-01-26T10:57:42.325Z,8.55
2023-01-26T10:59:52.705Z,8.52
2023-01-26T11:01:57.469Z,8.55
2023-01-26T11:04:04.943Z,11.25
2023-01-26T11:06:09.176Z,8.95
2023-01-26T11:08:33.713Z,10.85
2023-01-26T11:10:42.960Z,10.65
2023-01-26T11:12:46.047Z,11.82
2023-01-26T11:15:01.472Z,11.10
2023-01-26T11:17:15.715Z,9.32
2023-01-26T11:19:28.331Z,10.05
2023-01-26T11:21:35.346Z,9.15
2023-01-26T11:23:47.548Z,9.10
2023-01-26T11:26:15.446Z,10.50
2023-01-26T11:28:30.995Z,9.60
2023-01-26T11:30:40.547Z,10.55
2023-01-26T11:32:47.989Z,11.38
2023-01-26T11:34:58.877Z,12.48
2023-01-26T11:37:15.721Z,12.52
2023-01-26T11:39:24.525Z,13.98
2023-01-26T11:41:39.369Z,11.10
2023-01-26T11:44:13.336Z,12.65
2023-01-26T11:46:41.067Z,10.48
2023-01-26T11:48:50.694Z,13.23
2023-01-26T11:50:57.311Z,10.90
2023-01-26T11:53:29.025Z,12.70
2023-01-26T11:55:39.812Z,12.75
2023-01-26T11:57:55.019Z,12.88
2023-01-26T12:00:01.971Z,13.10
2023-01-26T12:02:06.919Z,10.75
2023-01-26T12:04:18.476Z,11.60
2023-01-26T12:06:27.175Z,10.77
2023-01-26T12:08:38.349Z,10.95
2023-01-26T12:10:47.891Z,12.02
2023-01-26T12:12:56.267Z,9.63
2023-01-26T12:15:05.953Z,11.02
2023-01-26T12:17:26.624Z,8.85
2023-01-26T12:19:40.155Z,10.60
2023-01-26T12:21:45.752Z,11.45
2023-01-26T12:23:52.878Z,12.65
2023-01-26T12:25:58.202Z,11.48
2023-01-26T12:28:12.426Z,13.70
2023-01-26T12:30:26.100Z,9.50
2023-01-26T12:32:29.264Z,11.65
2023-01-26T12:34:34.251Z,11.60
2023-01-26T12:36:44.163Z,9.23
2023-01-26T12:39:01.475Z,9.02
2023-01-26T12:41:10.040Z,10.10
2023-01-26T12:43:24.802Z,11.00
2023-01-26T12:45:31.202Z,10.70
2023-01-26T12:47:37.397Z,11.32
2023-01-26T12:49:44.806Z,13.15
2023-01-26T12:51:51.866Z,12.00
2023-01-26T12:53:58.725Z,12.50
2023-01-26T12:56:10.099Z,11.25
2023-01-26T12:58:15.765Z,12.38
2023-01-26T13:00:23.669Z,12.40
2023-01-26T13:02:29.459Z,11.52
2023-01-26T13:04:32.586Z,9.68
2023-01-26T13:06:35.834Z,10.07
2023-01-26T13:09:04.506Z,11.77
2023-01-26T13:11:08.972Z,10.90
2023-01-26T13:13:36.914Z,10.27
2023-01-26T13:15:41.368Z,10.98
2023-01-26T13:17:56.712Z,10.30
2023-01-26T13:20:00.224Z,9.70
2023-01-26T13:22:03.505Z,10.65
2023-01-26T13:24:47.066Z,19.52
2023-01-26T13:26:51.718Z,10.95
2023-01-26T13:29:41.616Z,13.93
2023-01-26T13:31:46.014Z,12.35
2023-01-26T13:33:50.273Z,12.75
2023-01-26T13:35:54.928Z,11.70
2023-01-26T13:38:03.519Z,13.63
2023-01-26T13:40:14.950Z,13.93
2023-01-26T13:42:21.812Z,11.40
2023-01-26T13:44:30.896Z,10.07
2023-01-26T13:46:37.752Z,9.38
2023-01-26T13:48:45.315Z,11.32
2023-01-26T13:50:51.466Z,12.85
2023-01-26T13:52:54.524Z,9.73
2023-01-26T13:54:57.889Z,12.00
2023-01-26T13:57:02.498Z,10.88
2023-01-26T13:59:11.556Z,10.43
2023-01-26T14:01:17.051Z,10.80
2023-01-26T14:03:22.821Z,10.00
2023-01-26T14:05:27.340Z,10.82
2023-01-26T14:07:33.779Z,9.48
2023-01-26T14:09:45.727Z,12.32
2023-01-26T14:11:59.385Z,9.38
2023-01-26T14:14:03.004Z,14.18
2023-01-26T14:16:07.959Z,11.60
2023-01-26T14:18:21.741Z,13.30
2023-01-26T14:20:30.011Z,13.60
2023-01-26T14:22:33.003Z,13.02
2023-01-26T14:24:39.705Z,11.93
2023-01-26T14:26:43.195Z,11.55
2023-01-26T14:28:46.862Z,14.07
2023-01-26T14:30:52.896Z,9.23
2023-01-26T14:32:59.208Z,11.63
2023-01-26T14:35:02.412Z,13.95
2023-01-26T14:37:08.302Z,9.20
2023-01-26T14:39:18.153Z,10.20
2023-01-26T14:41:23.420Z,10.25
2023-01-26T14:43:29.758Z,10.10
2023-01-26T14:45:41.581Z,9.73
2023-01-26T14:48:04.425Z,9.55
2023-01-26T14:50:11.696Z,8.50
2023-01-26T14:52:25.536Z,9.85
2023-01-26T15:02:17.920Z,14.50
2023-01-26T15:04:24.886Z,11.20
2023-01-26T15:06:29.533Z,9.20
2023-01-26T15:08:37.576Z,8.32
2023-01-26T15:10:42.846Z,8.90
2023-01-26T15:12:44.857Z,9.20
2023-01-26T15:14:52.627Z,10.15
2023-01-26T15:20:44.534Z,8.20
2023-01-26T15:22:49.990Z,8.10
2023-01-26T15:25:05.940Z,7.88
2023-01-26T15:27:08.997Z,7.72
2023-01-26T15:29:19.791Z,8.38
2023-01-26T15:31:28.389Z,8.95
2023-01-26T15:33:45.808Z,9.45
2023-01-26T15:35:58.433Z,9.73
2023-01-26T15:38:02.880Z,7.93
2023-01-26T15:40:08.985Z,8.93
2023-01-26T15:42:14.283Z,6.95
2023-01-26T15:44:18.689Z,7.70
2023-01-26T15:46:21.906Z,7.60
2023-01-26T15:48:26.712Z,7.28
2023-01-26T15:50:29.852Z,8.05
2023-01-26T15:52:33.334Z,7.95
2023-01-26T15:54:36.343Z,7.70
2023-01-26T15:56:40.724Z,9.38
2023-01-26T15:58:44.093Z,7.20
2023-01-26T16:00:47.449Z,6.90
2023-01-26T16:02:50.668Z,7.28
2023-01-26T16:04:53.760Z,8.60
2023-01-26T16:06:56.852Z,6.82
2023-01-26T16:09:00.224Z,8.07
2023-01-26T16:11:03.176Z,7.70
2023-01-26T16:13:10.178Z,7.78
2023-01-26T16:15:35.281Z,7.90
2023-01-26T16:17:38.300Z,7.40
2023-01-26T16:19:41.341Z,7.20
2023-01-26T16:21:45.206Z,11.05
2023-01-26T16:23:48.595Z,9.52
2023-01-26T16:25:52.254Z,9.98
2023-01-26T16:27:55.551Z,8.27
2023-01-26T16:29:59.967Z,9.18
2023-01-26T16:32:03.191Z,8.88
2023-01-26T16:34:06.203Z,9.27
2023-01-26T16:36:11.482Z,9.65
2023-01-26T16:38:14.526Z,9.30
2023-01-26T16:40:18.698Z,8.88
2023-01-26T16:42:22.318Z,11.55
2023-01-26T16:44:25.457Z,9.32
2023-01-26T16:46:31.605Z,12.05
2023-01-26T16:48:34.885Z,10.13
2023-01-26T16:50:38.015Z,8.93
2023-01-26T16:52:42.044Z,8.63
2023-01-26T16:54:45.645Z,7.82
2023-01-26T16:56:48.639Z,7.88
2023-01-26T16:58:51.998Z,8.40
2023-01-26T17:00:55.567Z,8.50
2023-01-26T17:02:59.998Z,8.45
2023-01-26T17:05:03.042Z,8.18
2023-01-26T17:07:06.188Z,7.43
2023-01-26T17:09:10.480Z,7.38
2023-01-26T17:11:17.847Z,9.98
2023-01-26T17:13:20.881Z,8.75
2023-01-26T17:15:25.234Z,7.47
2023-01-26T17:17:28.233Z,12.00
2023-01-26T17:19:32.593Z,13.43
2023-01-26T17:21:35.749Z,8.68
2023-01-26T17:23:41.590Z,8.30
2023-01-26T17:25:44.666Z,8.15
2023-01-26T17:27:49.768Z,10.65
2023-01-26T17:29:52.829Z,9.57
2023-01-26T17:31:55.939Z,8.20
2023-01-26T17:33:58.975Z,8.27
2023-01-26T17:36:04.375Z,9.50
2023-01-26T17:38:07.314Z,10.35
2023-01-26T17:40:11.675Z,13.35
2023-01-26T17:42:15.135Z,10.48
2023-01-26T17:44:18.146Z,10.65
2023-01-26T17:46:22.234Z,10.68
2023-01-26T17:48:25.194Z,10.90
2023-01-26T17:50:28.260Z,11.00
2023-01-26T17:52:35.277Z,11.18
2023-01-26T17:54:38.331Z,11.63
2023-01-26T17:56:41.324Z,12.68
2023-01-26T17:58:48.629Z,12.07
2023-01-26T18:00:51.777Z,11.88
2023-01-26T18:02:55.127Z,16.10
2023-01-26T18:04:58.173Z,11.85
2023-01-26T18:07:02.695Z,13.07
2023-01-26T18:09:07.112Z,11.23
2023-01-26T18:11:12.337Z,15.18
2023-01-26T18:13:16.081Z,14.55
2023-01-26T18:15:19.136Z,12.95
2023-01-26T18:17:22.300Z,13.23
2023-01-26T18:19:25.460Z,12.50
2023-01-26T18:21:30.115Z,12.57
2023-01-26T18:23:33.136Z,15.18
2023-01-26T18:25:37.603Z,14.80
2023-01-26T18:27:40.826Z,13.18
2023-01-26T18:29:44.075Z,13.30
2023-01-26T18:31:48.031Z,15.27
2023-01-26T18:33:51.229Z,14.98
2023-01-26T18:35:54.282Z,14.25
2023-01-26T18:37:57.342Z,14.05
2023-01-26T18:40:00.427Z,14.65
2023-01-26T18:42:05.040Z,13.93
2023-01-26T18:44:08.405Z,14.50
2023-01-26T18:46:12.202Z,13.45
2023-01-26T18:48:15.261Z,13.50
2023-01-26T18:50:18.784Z,14.32
2023-01-26T18:52:21.915Z,15.85
2023-01-26T18:54:25.696Z,13.43
2023-01-26T18:56:28.900Z,14.55
2023-01-26T18:58:33.278Z,13.00
2023-01-26T19:00:36.421Z,14.75
2023-01-26T19:02:39.570Z,13.35
2023-01-26T19:04:42.863Z,12.02
2023-01-26T19:06:46.682Z,12.60
2023-01-26T19:08:58.588Z,13.60
2023-01-26T19:11:05.461Z,14.60
2023-01-26T19:13:09.387Z,13.02
2023-01-26T19:15:14.140Z,13.60
2023-01-26T19:17:18.186Z,13.20
2023-01-26T19:19:21.286Z,16.13
2023-01-26T19:21:25.183Z,13.45
2023-01-26T19:23:28.687Z,13.77
2023-01-26T19:25:31.958Z,13.73
2023-01-26T19:27:34.943Z,13.57
2023-01-26T19:29:37.984Z,14.75
2023-01-26T19:31:42.780Z,15.00
2023-01-26T19:33:50.891Z,11.20
2023-01-26T19:35:53.881Z,14.02
2023-01-26T19:37:57.212Z,12.40
2023-01-26T19:40:00.329Z,13.10
2023-01-26T19:42:03.385Z,11.75
2023-01-26T19:44:06.771Z,12.20
2023-01-26T19:46:11.738Z,11.73
2023-01-26T19:48:16.483Z,13.55
2023-01-26T19:50:19.918Z,12.48
2023-01-26T19:52:22.899Z,11.52
2023-01-26T19:54:26.034Z,12.52
2023-01-26T19:56:31.447Z,12.48
2023-01-26T19:58:34.547Z,11.38
2023-01-26T20:00:37.545Z,11.40
2023-01-26T20:02:40.686Z,12.13
2023-01-26T20:04:45.573Z,12.10
2023-01-26T20:06:49.919Z,11.40
2023-01-26T20:08:54.135Z,11.88
2023-01-26T20:11:03.755Z,11.27
2023-01-26T20:13:07.320Z,10.75
2023-01-26T20:15:11.773Z,11.65
2023-01-26T20:17:14.940Z,11.20
2023-01-26T20:19:18.163Z,10.73
2023-01-26T20:21:23.351Z,12.25
2023-01-26T20:23:27.331Z,11.20
2023-01-26T20:25:30.555Z,12.15
2023-01-26T20:27:34.109Z,11.13
2023-01-26T20:29:37.125Z,10.40
2023-01-26T20:31:40.179Z,11.68
2023-01-26T20:33:44.230Z,12.95
2023-01-26T20:35:47.305Z,11.50
2023-01-26T20:37:51.715Z,14.02
2023-01-26T20:39:54.752Z,11.90
2023-01-26T20:41:57.722Z,10.93
2023-01-26T20:44:02.656Z,12.25
2023-01-26T20:46:07.477Z,14.93
2023-01-26T20:48:10.548Z,13.07
2023-01-26T20:50:14.193Z,15.15
2023-01-26T20:52:17.370Z,15.27
2023-01-26T20:54:22.786Z,13.05
2023-01-26T20:56:26.770Z,14.73
2023-01-26T20:58:29.845Z,13.35
2023-01-26T21:00:33.016Z,14.25
2023-01-26T21:02:36.072Z,12.57
2023-01-26T21:04:39.136Z,14.20
2023-01-26T21:06:42.177Z,13.48
2023-01-26T21:08:45.251Z,12.82
2023-01-26T21:10:50.568Z,13.40
2023-01-26T21:12:53.529Z,12.75
2023-01-26T21:14:56.511Z,13.73
2023-01-26T21:16:59.754Z,15.75
2023-01-26T21:19:02.869Z,14.05
2023-01-26T21:21:07.687Z,14.80
2023-01-26T21:23:10.811Z,12.80
2023-01-26T21:25:14.114Z,13.57
2023-01-26T21:27:19.149Z,13.93
2023-01-26T21:29:22.424Z,13.25
2023-01-26T21:31:26.712Z,14.10
2023-01-26T21:33:29.907Z,14.75
2023-01-26T21:35:32.898Z,15.55
2023-01-26T21:37:35.924Z,18.08
2023-01-26T21:39:38.913Z,14.27
2023-01-26T21:41:57.193Z,13.18
2023-01-26T21:44:02.985Z,13.23
2023-01-26T21:46:06.405Z,13.65
2023-01-26T21:48:26.855Z,12.88
2023-01-26T21:50:50.031Z,12.45
2023-01-26T21:52:57.815Z,12.40
2023-01-26T21:55:00.869Z,12.43
2023-01-26T21:57:25.443Z,11.90
2023-01-26T21:59:29.284Z,11.80
2023-01-26T22:01:34.010Z,12.10
2023-01-26T22:03:37.710Z,12.18
2023-01-26T22:05:40.710Z,12.98
2023-01-26T22:07:43.812Z,12.95
2023-01-26T22:09:46.883Z,12.88
2023-01-26T22:11:50.637Z,12.07
2023-01-26T22:13:53.977Z,12.82
2023-01-26T22:16:04.187Z,12.13
2023-01-26T22:18:07.447Z,12.57
2023-01-26T22:20:12.186Z,12.05
2023-01-26T22:22:15.738Z,12.45
2023-01-26T22:24:18.981Z,12.63
2023-01-26T22:26:23.536Z,13.10
2023-01-26T22:28:26.531Z,13.02
2023-01-26T22:30:29.612Z,13.57
2023-01-26T22:32:34.014Z,13.02
2023-01-26T22:34:37.079Z,12.77
2023-01-26T22:36:40.490Z,13.02
2023-01-26T22:38:43.967Z,14.07
2023-01-26T22:40:47.008Z,12.88
2023-01-26T22:42:50.083Z,13.73
2023-01-26T22:44:53.046Z,13.95
2023-01-26T22:46:56.012Z,14.13
2023-01-26T22:49:00.739Z,12.90
2023-01-26T22:51:07.951Z,13.95
2023-01-26T22:53:11.565Z,13.70
2023-01-26T22:55:14.543Z,14.75
2023-01-26T22:57:17.570Z,13.60
2023-01-26T22:59:20.633Z,13.60
2023-01-26T23:01:24.104Z,14.68
2023-01-26T23:03:27.130Z,14.55
2023-01-26T23:05:34.448Z,15.38
2023-01-26T23:07:37.451Z,15.93
2023-01-26T23:09:40.470Z,15.35
2023-01-26T23:11:43.483Z,15.45
2023-01-26T23:13:47.505Z,20.63
2023-01-26T23:15:50.524Z,18.20
2023-01-26T23:17:53.871Z,15.23
2023-01-26T23:19:56.935Z,13.70
2023-01-26T23:22:01.364Z,13.10
2023-01-26T23:24:04.411Z,14.75
2023-01-26T23:26:07.570Z,14.75
2023-01-26T23:28:10.565Z,15.48
2023-01-26T23:30:14.692Z,14.35
2023-01-26T23:32:17.762Z,15.23
2023-01-26T23:34:21.238Z,14.35
2023-01-26T23:36:24.200Z,14.60
2023-01-26T23:38:29.567Z,14.50
2023-01-26T23:40:32.485Z,14.63
2023-01-26T23:42:45.227Z,13.00
2023-01-26T23:44:58.463Z,13.30
2023-01-26T23:47:01.610Z,13.50
2023-01-26T23:49:04.617Z,12.85
2023-01-26T23:51:10.061Z,12.10
2023-01-26T23:53:13.255Z,12.13
2023-01-26T23:55:18.049Z,13.35
2023-01-26T23:57:21.017Z,13.88
2023-01-26T23:59:24.193Z,14.32
